Orion II — 9HUT9 — position and weather

sailwx.info

Track history (hours):
 
Tides and Currents Weather Stations Pressure Air Temp Water Temp Dewpoint Dewpoint Depression Visibility Wind Speed Wind Dir Waves Ship Positions

Orion II

Last reported at 2017-May-28 20:03 UTC. Time now 2017-May-29 16:57 UTC.
Position N 58°52' W 003°51'.

Length 88 m; draft 4 m.

MMSI: 249556000.

Date/timePositionNaut miles runAvg speedWind from/ knotsBaromVisibWave heightAir tempDewpointWater temp
2017-May-28 20:03N 58°52' W 003°51'110.8
2017-May-28 20:00N 58°52' W 003°50'510.9
2017-May-28 19:30N 58°54' W 003°40'510.7
2017-May-28 19:00N 58°55' W 003°30'510.1
2017-May-28 18:30N 58°57' W 003°21'2 1.1
2017-May-28 16:48N 58°58' W 003°18'0 0.0
2017-May-28 16:29N 58°58' W 003°18'0 0.0
2017-May-28 15:59N 58°58' W 003°18'0 0.0
2017-May-28 15:30N 58°58' W 003°18'0 0.0
2017-May-28 15:00N 58°58' W 003°18'0 0.0
2017-May-28 14:00N 58°58' W 003°18'0 0.0
2017-May-28 10:49N 58°58' W 003°18'0 0.0
2017-May-28 10:26N 58°58' W 003°18'0 0.0
2017-May-28 09:56N 58°58' W 003°18'0 0.0
2017-May-28 08:44N 58°58' W 003°18'0 0.0
2017-May-28 08:20N 58°58' W 003°18'0 0.0
2017-May-28 07:53N 58°58' W 003°18'0 0.0
2017-May-28 07:29N 58°58' W 003°18'0 0.0
2017-May-28 06:59N 58°58' W 003°18'0 0.0
2017-May-28 06:10N 58°58' W 003°18'0 0.0
2017-May-28 05:58N 58°58' W 003°18'1 1.6
2017-May-28 05:30N 58°57' W 003°17'611.4
2017-May-28 05:00N 58°54' W 003°08'611.8
2017-May-28 04:30N 58°49' W 003°03'611.8
2017-May-28 04:00N 58°43' W 003°01'510.5
2017-May-28 03:30N 58°38' W 002°56'5 9.8
2017-May-28 03:00N 58°34' W 002°51'8610.5
2017-May-27 18:52N 57°13' W 001°57'412.4
2017-May-27 18:30N 57°10' W 002°01'3 5.1
2017-May-27 18:00N 57°09' W 002°05'0 0.3
2017-May-27 17:29N 57°09' W 002°05'0 0.0
2017-May-27 16:59N 57°09' W 002°05'0 0.0
2017-May-27 16:29N 57°09' W 002°05'0 0.0
2017-May-27 15:59N 57°09' W 002°05'0 0.0
2017-May-27 15:29N 57°09' W 002°05'0 0.0
2017-May-27 14:59N 57°09' W 002°05'0 0.0
2017-May-27 14:29N 57°09' W 002°05'0 0.0
2017-May-27 13:29N 57°09' W 002°05'0 0.0
2017-May-27 12:59N 57°09' W 002°05'0 0.0
2017-May-27 12:29N 57°09' W 002°05'0 0.0
2017-May-27 11:59N 57°09' W 002°05'0 0.0
2017-May-27 11:30N 57°09' W 002°05'0 0.0
2017-May-27 11:00N 57°09' W 002°05'0 0.0
2017-May-27 10:30N 57°09' W 002°05'0 0.0
2017-May-27 10:00N 57°09' W 002°05'0 0.0
2017-May-27 09:30N 57°09' W 002°05'0 0.0
2017-May-27 09:00N 57°09' W 002°05'0 0.0
2017-May-27 08:30N 57°09' W 002°05'0 0.0
2017-May-27 08:00N 57°09' W 002°05'0 0.0
2017-May-27 07:30N 57°09' W 002°05'0 0.0
2017-May-27 07:00N 57°09' W 002°05'0 0.0
2017-May-27 06:30N 57°09' W 002°05'0 0.0
2017-May-27 06:00N 57°09' W 002°05'0 0.0
2017-May-27 05:30N 57°09' W 002°05'1 2.2
2017-May-27 05:00N 57°09' W 002°03'4 8.9
2017-May-27 04:31N 57°04' W 002°03'3613.2
2017-May-27 01:49N 56°30' W 002°19'512.8
2017-May-27 01:23N 56°25' W 002°22'613.0
2017-May-27 00:55N 56°19' W 002°27'512.6
2017-May-27 00:30N 56°15' W 002°32'611.9
2017-May-27 00:00N 56°11' W 002°40'611.5
2017-May-26 23:31N 56°08' W 002°48'611.9
2017-May-26 23:00N 56°04' W 002°57'510.6
2017-May-26 22:30N 56°02' W 003°05'4 7.7
2017-May-26 22:00N 55°60' W 003°11'1 1.0
2017-May-26 21:27N 55°59' W 003°11'0 0.9
2017-May-26 20:57N 55°59' W 003°11'0 0.0
2017-May-26 20:27N 55°59' W 003°11'0 0.0
2017-May-26 19:57N 55°59' W 003°11'0 0.0
2017-May-26 19:27N 55°59' W 003°11'0 0.0
2017-May-26 18:57N 55°59' W 003°11'0 0.0
2017-May-26 18:27N 55°59' W 003°11'0 0.0
2017-May-26 17:57N 55°59' W 003°11'0 0.0
2017-May-26 17:28N 55°59' W 003°11'0 0.0
2017-May-26 16:58N 55°59' W 003°11'0 0.0
2017-May-26 16:28N 55°59' W 003°11'0 0.0
2017-May-26 15:58N 55°59' W 003°11'0 0.0
2017-May-26 15:28N 55°59' W 003°11'0 0.0
2017-May-26 14:58N 55°59' W 003°11'0 0.0
2017-May-26 13:58N 55°59' W 003°11'0 0.0
2017-May-26 13:28N 55°59' W 003°11'0 0.0
2017-May-26 12:58N 55°59' W 003°11'0 0.0
2017-May-26 12:28N 55°59' W 003°11'0 0.0
2017-May-26 11:58N 55°59' W 003°11'0 0.0
2017-May-26 11:28N 55°59' W 003°11'0 0.0
2017-May-26 10:58N 55°59' W 003°11'0 0.0
2017-May-26 10:28N 55°59' W 003°11'0 0.0
2017-May-26 09:57N 55°59' W 003°11'0 0.0
2017-May-26 09:28N 55°59' W 003°11'0 0.2
2017-May-26 08:57N 55°59' W 003°11'0 0.0
2017-May-26 08:28N 55°59' W 003°11'0 0.0
2017-May-26 07:58N 55°59' W 003°11'0 0.0
2017-May-26 07:28N 55°59' W 003°11'0 0.0
2017-May-26 06:58N 55°59' W 003°11'0 0.0
2017-May-26 06:28N 55°59' W 003°11'0 0.0
2017-May-26 05:58N 55°59' W 003°11'0 0.0
2017-May-26 05:28N 55°59' W 003°11'0 0.0
2017-May-26 04:58N 55°59' W 003°11'0 0.0
2017-May-26 04:28N 55°59' W 003°11'0 0.0
2017-May-26 03:58N 55°59' W 003°11'0 0.0
2017-May-26 03:28N 55°59' W 003°11'0 0.0
2017-May-26 02:58N 55°59' W 003°11'0 0.0
2017-May-26 02:28N 55°59' W 003°11'0 0.0
2017-May-26 01:58N 55°59' W 003°11'0 0.0
2017-May-26 01:28N 55°59' W 003°11'0 0.0
2017-May-26 00:58N 55°59' W 003°11'0 0.0
2017-May-26 00:28N 55°59' W 003°11'0 0.0
2017-May-25 23:58N 55°59' W 003°11'0 0.0
2017-May-25 23:28N 55°59' W 003°11'0 0.0
2017-May-25 22:58N 55°59' W 003°11'0 0.0
2017-May-25 22:28N 55°59' W 003°11'0 0.0
2017-May-25 21:58N 55°59' W 003°11'0 0.0
2017-May-25 21:28N 55°59' W 003°11'0 0.0
2017-May-25 20:57N 55°59' W 003°11'0 0.0
2017-May-25 20:28N 55°59' W 003°11'0 0.0
2017-May-25 19:58N 55°59' W 003°11'0 0.0
2017-May-25 19:28N 55°59' W 003°11'0 0.0
2017-May-25 18:58N 55°59' W 003°11'0 0.0
2017-May-25 18:28N 55°59' W 003°11'0 0.0
2017-May-25 17:58N 55°59' W 003°11'0 0.0
2017-May-25 17:28N 55°59' W 003°11'0 0.0
2017-May-25 16:58N 55°59' W 003°11'0 0.0
2017-May-25 16:28N 55°59' W 003°11'0 0.0
2017-May-25 15:58N 55°59' W 003°11'0 0.0
2017-May-25 15:28N 55°59' W 003°11'0 0.0
2017-May-25 14:58N 55°59' W 003°11'0 0.0
2017-May-25 14:28N 55°59' W 003°11'0 0.0
2017-May-25 13:28N 55°59' W 003°11'0 0.0
2017-May-25 12:58N 55°59' W 003°11'0 0.0
2017-May-25 12:29N 55°59' W 003°11'0 0.0
2017-May-25 11:59N 55°59' W 003°11'0 0.0
2017-May-25 11:29N 55°59' W 003°11'0 0.0
2017-May-25 11:00N 55°59' W 003°11'0 0.0
2017-May-25 10:30N 55°59' W 003°11'0 0.0
2017-May-25 10:00N 55°59' W 003°11'0 0.0
2017-May-25 09:30N 55°59' W 003°11'0 0.0
2017-May-25 09:00N 55°59' W 003°11'0 0.0
2017-May-25 08:30N 55°59' W 003°11'0 0.0
2017-May-25 08:00N 55°59' W 003°11'0 0.0
2017-May-25 07:30N 55°59' W 003°11'0 0.0
2017-May-25 07:00N 55°59' W 003°11'0 0.2
2017-May-25 06:30N 55°59' W 003°11'0 0.5
2017-May-25 05:58N 55°59' W 003°11'1 2.3
2017-May-25 05:30N 56°00' W 003°11'611.0
2017-May-25 05:00N 56°03' W 003°02'510.5
2017-May-25 04:30N 56°05' W 002°53'4 7.5
2017-May-25 04:00N 56°06' W 002°47'4 7.6
2017-May-25 03:30N 56°06' W 002°40'3 5.3
2017-May-25 03:00N 56°06' W 002°35'3 5.6
2017-May-25 02:30N 56°06' W 002°31'3 5.8
2017-May-25 02:00N 56°05' W 002°25'3 6.2
2017-May-25 01:30N 56°04' W 002°20'3 6.3
2017-May-25 01:00N 56°02' W 002°16'3 6.3
2017-May-25 00:30N 56°01' W 002°10'3 6.5
2017-May-25 00:00N 55°59' W 002°05'4 6.9
2017-May-24 23:24N 55°56' W 002°00'3 7.6
2017-May-24 22:59N 55°54' W 001°56'4 7.6
2017-May-24 22:30N 55°52' W 001°51'4 7.5
2017-May-24 21:59N 55°49' W 001°46'4 7.5
2017-May-24 21:30N 55°47' W 001°41'286 7.2
2017-May-23 05:49N 51°41' E 002°26'5 9.2
2017-May-23 05:19N 51°37' E 002°22'3 9.5
2017-May-23 05:00N 51°35' E 002°19'6 9.7
2017-May-23 04:22N 51°30' E 002°12'410.2
2017-May-23 04:00N 51°27' E 002°08'510.3
2017-May-23 03:30N 51°23' E 002°03'510.4
2017-May-23 03:00N 51°20' E 001°57'510.7
2017-May-23 02:30N 51°15' E 001°52'611.0
2017-May-23 02:00N 51°11' E 001°46'611.3
2017-May-23 01:30N 51°06' E 001°42'611.5
2017-May-23 01:00N 51°01' E 001°37'612.0
2017-May-23 00:28N 50°56' E 001°31'612.5
2017-May-23 00:00N 50°51' E 001°26'712.5
2017-May-22 23:27N 50°45' E 001°23'26111.0
2017-May-21 23:44N 48°53' W 004°43'312.1
2017-May-21 23:27N 48°51' W 004°47'512.0
2017-May-21 23:00N 48°48' W 004°54'612.0
2017-May-21 22:31N 48°45' W 005°01'611.6
2017-May-21 22:00N 48°41' W 005°08'611.2
2017-May-21 21:30N 48°38' W 005°15'911.0
2017-May-21 20:39N 48°30' W 005°24'1210.9
2017-May-21 19:33N 48°20' W 005°31'1111.0
2017-May-21 18:33N 48°09' W 005°37'  
Track history (hours):
 
Tides and Currents Weather Stations Pressure Air Temp Water Temp Dewpoint Dewpoint Depression Visibility Wind Speed Wind Dir Waves Ship Positions

Orion II

Last reported at 2017-May-28 20:03 UTC. Time now 2017-May-29 16:57 UTC.
Position N 58°52' W 003°51'.

Length 88 m; draft 4 m.

MMSI: 249556000.

Date/timePositionNaut miles runAvg speedWind from/ knotsBaromVisibWave heightAir tempDewpointWater temp
2017-May-28 20:03N 58°52' W 003°51'110.8
2017-May-28 20:00N 58°52' W 003°50'510.9
2017-May-28 19:30N 58°54' W 003°40'510.7
2017-May-28 19:00N 58°55' W 003°30'510.1
2017-May-28 18:30N 58°57' W 003°21'2 1.1
2017-May-28 16:48N 58°58' W 003°18'0 0.0
2017-May-28 16:29N 58°58' W 003°18'0 0.0
2017-May-28 15:59N 58°58' W 003°18'0 0.0
2017-May-28 15:30N 58°58' W 003°18'0 0.0
2017-May-28 15:00N 58°58' W 003°18'0 0.0
2017-May-28 14:00N 58°58' W 003°18'0 0.0
2017-May-28 10:49N 58°58' W 003°18'0 0.0
2017-May-28 10:26N 58°58' W 003°18'0 0.0
2017-May-28 09:56N 58°58' W 003°18'0 0.0
2017-May-28 08:44N 58°58' W 003°18'0 0.0
2017-May-28 08:20N 58°58' W 003°18'0 0.0
2017-May-28 07:53N 58°58' W 003°18'0 0.0
2017-May-28 07:29N 58°58' W 003°18'0 0.0
2017-May-28 06:59N 58°58' W 003°18'0 0.0
2017-May-28 06:10N 58°58' W 003°18'0 0.0
2017-May-28 05:58N 58°58' W 003°18'1 1.6
2017-May-28 05:30N 58°57' W 003°17'611.4
2017-May-28 05:00N 58°54' W 003°08'611.8
2017-May-28 04:30N 58°49' W 003°03'611.8
2017-May-28 04:00N 58°43' W 003°01'510.5
2017-May-28 03:30N 58°38' W 002°56'5 9.8
2017-May-28 03:00N 58°34' W 002°51'8610.5
2017-May-27 18:52N 57°13' W 001°57'412.4
2017-May-27 18:30N 57°10' W 002°01'3 5.1
2017-May-27 18:00N 57°09' W 002°05'0 0.3
2017-May-27 17:29N 57°09' W 002°05'0 0.0
2017-May-27 16:59N 57°09' W 002°05'0 0.0
2017-May-27 16:29N 57°09' W 002°05'0 0.0
2017-May-27 15:59N 57°09' W 002°05'0 0.0
2017-May-27 15:29N 57°09' W 002°05'0 0.0
2017-May-27 14:59N 57°09' W 002°05'0 0.0
2017-May-27 14:29N 57°09' W 002°05'0 0.0
2017-May-27 13:29N 57°09' W 002°05'0 0.0
2017-May-27 12:59N 57°09' W 002°05'0 0.0
2017-May-27 12:29N 57°09' W 002°05'0 0.0
2017-May-27 11:59N 57°09' W 002°05'0 0.0
2017-May-27 11:30N 57°09' W 002°05'0 0.0
2017-May-27 11:00N 57°09' W 002°05'0 0.0
2017-May-27 10:30N 57°09' W 002°05'0 0.0
2017-May-27 10:00N 57°09' W 002°05'0 0.0
2017-May-27 09:30N 57°09' W 002°05'0 0.0
2017-May-27 09:00N 57°09' W 002°05'0 0.0
2017-May-27 08:30N 57°09' W 002°05'0 0.0
2017-May-27 08:00N 57°09' W 002°05'0 0.0
2017-May-27 07:30N 57°09' W 002°05'0 0.0
2017-May-27 07:00N 57°09' W 002°05'0 0.0
2017-May-27 06:30N 57°09' W 002°05'0 0.0
2017-May-27 06:00N 57°09' W 002°05'0 0.0
2017-May-27 05:30N 57°09' W 002°05'1 2.2
2017-May-27 05:00N 57°09' W 002°03'4 8.9
2017-May-27 04:31N 57°04' W 002°03'3613.2
2017-May-27 01:49N 56°30' W 002°19'512.8
2017-May-27 01:23N 56°25' W 002°22'613.0
2017-May-27 00:55N 56°19' W 002°27'512.6
2017-May-27 00:30N 56°15' W 002°32'611.9
2017-May-27 00:00N 56°11' W 002°40'611.5
2017-May-26 23:31N 56°08' W 002°48'611.9
2017-May-26 23:00N 56°04' W 002°57'510.6
2017-May-26 22:30N 56°02' W 003°05'4 7.7
2017-May-26 22:00N 55°60' W 003°11'1 1.0
2017-May-26 21:27N 55°59' W 003°11'0 0.9
2017-May-26 20:57N 55°59' W 003°11'0 0.0
2017-May-26 20:27N 55°59' W 003°11'0 0.0
2017-May-26 19:57N 55°59' W 003°11'0 0.0
2017-May-26 19:27N 55°59' W 003°11'0 0.0
2017-May-26 18:57N 55°59' W 003°11'0 0.0
2017-May-26 18:27N 55°59' W 003°11'0 0.0
2017-May-26 17:57N 55°59' W 003°11'0 0.0
2017-May-26 17:28N 55°59' W 003°11'0 0.0
2017-May-26 16:58N 55°59' W 003°11'0 0.0
2017-May-26 16:28N 55°59' W 003°11'0 0.0
2017-May-26 15:58N 55°59' W 003°11'0 0.0
2017-May-26 15:28N 55°59' W 003°11'0 0.0
2017-May-26 14:58N 55°59' W 003°11'0 0.0
2017-May-26 13:58N 55°59' W 003°11'0 0.0
2017-May-26 13:28N 55°59' W 003°11'0 0.0
2017-May-26 12:58N 55°59' W 003°11'0 0.0
2017-May-26 12:28N 55°59' W 003°11'0 0.0
2017-May-26 11:58N 55°59' W 003°11'0 0.0
2017-May-26 11:28N 55°59' W 003°11'0 0.0
2017-May-26 10:58N 55°59' W 003°11'0 0.0
2017-May-26 10:28N 55°59' W 003°11'0 0.0
2017-May-26 09:57N 55°59' W 003°11'0 0.0
2017-May-26 09:28N 55°59' W 003°11'0 0.2
2017-May-26 08:57N 55°59' W 003°11'0 0.0
2017-May-26 08:28N 55°59' W 003°11'0 0.0
2017-May-26 07:58N 55°59' W 003°11'0 0.0
2017-May-26 07:28N 55°59' W 003°11'0 0.0
2017-May-26 06:58N 55°59' W 003°11'0 0.0
2017-May-26 06:28N 55°59' W 003°11'0 0.0
2017-May-26 05:58N 55°59' W 003°11'0 0.0
2017-May-26 05:28N 55°59' W 003°11'0 0.0
2017-May-26 04:58N 55°59' W 003°11'0 0.0
2017-May-26 04:28N 55°59' W 003°11'0 0.0
2017-May-26 03:58N 55°59' W 003°11'0 0.0
2017-May-26 03:28N 55°59' W 003°11'0 0.0
2017-May-26 02:58N 55°59' W 003°11'0 0.0
2017-May-26 02:28N 55°59' W 003°11'0 0.0
2017-May-26 01:58N 55°59' W 003°11'0 0.0
2017-May-26 01:28N 55°59' W 003°11'0 0.0
2017-May-26 00:58N 55°59' W 003°11'0 0.0
2017-May-26 00:28N 55°59' W 003°11'0 0.0
2017-May-25 23:58N 55°59' W 003°11'0 0.0
2017-May-25 23:28N 55°59' W 003°11'0 0.0
2017-May-25 22:58N 55°59' W 003°11'0 0.0
2017-May-25 22:28N 55°59' W 003°11'0 0.0
2017-May-25 21:58N 55°59' W 003°11'0 0.0
2017-May-25 21:28N 55°59' W 003°11'0 0.0
2017-May-25 20:57N 55°59' W 003°11'0 0.0
2017-May-25 20:28N 55°59' W 003°11'0 0.0
2017-May-25 19:58N 55°59' W 003°11'0 0.0
2017-May-25 19:28N 55°59' W 003°11'0 0.0
2017-May-25 18:58N 55°59' W 003°11'0 0.0
2017-May-25 18:28N 55°59' W 003°11'0 0.0
2017-May-25 17:58N 55°59' W 003°11'0 0.0
2017-May-25 17:28N 55°59' W 003°11'0 0.0
2017-May-25 16:58N 55°59' W 003°11'0 0.0
2017-May-25 16:28N 55°59' W 003°11'0 0.0
2017-May-25 15:58N 55°59' W 003°11'0 0.0
2017-May-25 15:28N 55°59' W 003°11'0 0.0
2017-May-25 14:58N 55°59' W 003°11'0 0.0
2017-May-25 14:28N 55°59' W 003°11'0 0.0
2017-May-25 13:28N 55°59' W 003°11'0 0.0
2017-May-25 12:58N 55°59' W 003°11'0 0.0
2017-May-25 12:29N 55°59' W 003°11'0 0.0
2017-May-25 11:59N 55°59' W 003°11'0 0.0
2017-May-25 11:29N 55°59' W 003°11'0 0.0
2017-May-25 11:00N 55°59' W 003°11'0 0.0
2017-May-25 10:30N 55°59' W 003°11'0 0.0
2017-May-25 10:00N 55°59' W 003°11'0 0.0
2017-May-25 09:30N 55°59' W 003°11'0 0.0
2017-May-25 09:00N 55°59' W 003°11'0 0.0
2017-May-25 08:30N 55°59' W 003°11'0 0.0
2017-May-25 08:00N 55°59' W 003°11'0 0.0
2017-May-25 07:30N 55°59' W 003°11'0 0.0
2017-May-25 07:00N 55°59' W 003°11'0 0.2
2017-May-25 06:30N 55°59' W 003°11'0 0.5
2017-May-25 05:58N 55°59' W 003°11'1 2.3
2017-May-25 05:30N 56°00' W 003°11'611.0
2017-May-25 05:00N 56°03' W 003°02'510.5
2017-May-25 04:30N 56°05' W 002°53'4 7.5
2017-May-25 04:00N 56°06' W 002°47'4 7.6
2017-May-25 03:30N 56°06' W 002°40'3 5.3
2017-May-25 03:00N 56°06' W 002°35'3 5.6
2017-May-25 02:30N 56°06' W 002°31'3 5.8
2017-May-25 02:00N 56°05' W 002°25'3 6.2
2017-May-25 01:30N 56°04' W 002°20'3 6.3
2017-May-25 01:00N 56°02' W 002°16'3 6.3
2017-May-25 00:30N 56°01' W 002°10'3 6.5
2017-May-25 00:00N 55°59' W 002°05'4 6.9
2017-May-24 23:24N 55°56' W 002°00'3 7.6
2017-May-24 22:59N 55°54' W 001°56'4 7.6
2017-May-24 22:30N 55°52' W 001°51'4 7.5
2017-May-24 21:59N 55°49' W 001°46'4 7.5
2017-May-24 21:30N 55°47' W 001°41'286 7.2
2017-May-23 05:49N 51°41' E 002°26'5 9.2
2017-May-23 05:19N 51°37' E 002°22'3 9.5
2017-May-23 05:00N 51°35' E 002°19'6 9.7
2017-May-23 04:22N 51°30' E 002°12'410.2
2017-May-23 04:00N 51°27' E 002°08'510.3
2017-May-23 03:30N 51°23' E 002°03'510.4
2017-May-23 03:00N 51°20' E 001°57'510.7
2017-May-23 02:30N 51°15' E 001°52'611.0
2017-May-23 02:00N 51°11' E 001°46'611.3
2017-May-23 01:30N 51°06' E 001°42'611.5
2017-May-23 01:00N 51°01' E 001°37'612.0
2017-May-23 00:28N 50°56' E 001°31'612.5
2017-May-23 00:00N 50°51' E 001°26'712.5
2017-May-22 23:27N 50°45' E 001°23'26111.0
2017-May-21 23:44N 48°53' W 004°43'312.1
2017-May-21 23:27N 48°51' W 004°47'512.0
2017-May-21 23:00N 48°48' W 004°54'612.0
2017-May-21 22:31N 48°45' W 005°01'611.6
2017-May-21 22:00N 48°41' W 005°08'611.2
2017-May-21 21:30N 48°38' W 005°15'911.0
2017-May-21 20:39N 48°30' W 005°24'1210.9
2017-May-21 19:33N 48°20' W 005°31'1111.0
2017-May-21 18:33N 48°09' W 005°37'  

Dump ship's entire track history